Time;durP1;ratioP1;P1;durP2;ratioP2;P2;SDS_P1;SDS_P2;PMS_P1;PMS_P2;Temp;Humidity;BMP_temperature;BMP_pressure;BME280_temperature;BME280_humidity;BME280_pressure;Samples;Min_cycle;Max_cycle;Signal;HPM_P1;HPM_P2
2022/05/05 00:01:57;;;;;;;;;;;;;;;9.07;100.00;99986.73;1729888;83;20144;-77
2022/05/05 00:04:24;;;;;;;;;;;;;;;9.04;100.00;99989.73;1729975;83;20412;-76
2022/05/05 00:06:51;;;;;;;;;;;;;;;9.00;100.00;99988.38;1730070;83;20089;-76
2022/05/05 00:09:18;;;;;;;;;;;;;;;8.97;100.00;99991.39;1730168;83;20108;-76
2022/05/05 00:14:33;;;;;;;;;;;;;;;8.88;100.00;99994.55;1730204;83;20156;-75
2022/05/05 00:17:01;;;;;;;;;;;;;;;8.83;100.00;99993.67;1729846;83;20164;-76
2022/05/05 00:19:30;;;;;;;;;;;;;;;8.80;100.00;100007.98;1730235;83;20129;-76
2022/05/05 00:21:58;;;;;;;;;;;;;;;8.76;100.00;100004.77;1729976;83;20101;-76
2022/05/05 00:24:25;;;;;;;;;;;;;;;8.71;100.00;100012.00;1730068;82;20116;-75
2022/05/05 00:26:52;;;;;;;;;;;;;;;8.67;100.00;100015.16;1730354;83;20112;-75
2022/05/05 00:29:19;;;;;;;;;;;;;;;8.65;100.00;100015.32;1730435;83;20211;-75
2022/05/05 00:31:46;;;;;;;;;;;;;;;8.61;100.00;100019.86;1730091;82;20105;-78
2022/05/05 00:34:13;;;;;;;;;;;;;;;8.57;100.00;100020.68;1720685;83;20118;-76
2022/05/05 00:36:40;;;;;;;;;;;;;;;8.51;100.00;100024.83;1714175;84;20142;-77
2022/05/05 00:39:08;;;;;;;;;;;;;;;8.49;100.00;100023.31;1685702;85;20116;-74
2022/05/05 00:41:37;;;;;;;;;;;;;;;8.46;100.00;100028.50;1714145;82;20109;-75
2022/05/05 00:44:05;;;;;;;;;;;;;;;8.43;100.00;100027.97;1685136;85;20554;-75
2022/05/05 00:46:32;;;;;;;;;;;;;;;8.41;100.00;100040.72;1715393;83;20429;-75
2022/05/05 00:48:58;;;;;;;;;;;;;;;8.36;100.00;100044.75;1723340;83;20477;-75
2022/05/05 00:51:26;;;;;;;;;;;;;;;8.33;100.00;100044.22;1723381;83;20156;-76
2022/05/05 00:53:54;;;;;;;;;;;;;;;8.30;100.00;100040.48;1723229;83;20125;-76
2022/05/05 00:56:22;;;;;;;;;;;;;;;8.27;100.00;100040.30;1723258;82;20111;-75
2022/05/05 00:58:48;;;;;;;;;;;;;;;8.24;100.00;100039.26;1723455;83;20116;-78
2022/05/05 01:01:18;;;;;;;;;;;;;;;8.21;100.00;100050.34;1723419;82;20406;-75
2022/05/05 01:03:45;;;;;;;;;;;;;;;8.19;100.00;100052.34;1723034;83;20113;-74
2022/05/05 01:06:12;;;;;;;;;;;;;;;8.17;100.00;100051.15;1723056;83;20114;-76
2022/05/05 01:08:39;;;;;;;;;;;;;;;8.13;100.00;100053.81;1723280;83;20113;-75
2022/05/05 01:11:06;;;;;;;;;;;;;;;8.11;100.00;100043.70;1723003;83;20105;-76
2022/05/05 01:13:32;;;;;;;;;;;;;;;8.09;100.00;100056.96;1723362;83;20097;-75
2022/05/05 01:15:59;;;;;;;;;;;;;;;8.05;100.00;100054.23;1723333;83;20101;-75
2022/05/05 01:18:26;;;;;;;;;;;;;;;8.01;100.00;100060.44;1723427;83;20133;-78
2022/05/05 01:20:54;;;;;;;;;;;;;;;7.97;100.00;100068.48;1723455;83;20133;-75
2022/05/05 01:23:20;;;;;;;;;;;;;;;7.94;100.00;100062.89;1723304;83;20132;-75
2022/05/05 01:28:35;;;;;;;;;;;;;;;7.85;100.00;100071.89;1723248;83;20401;-76
2022/05/05 01:31:02;;;;;;;;;;;;;;;7.81;100.00;100063.78;1723020;83;20422;-75
2022/05/05 01:33:30;;;;;;;;;;;;;;;7.76;100.00;100068.78;1737084;82;20099;-74
2022/05/05 01:35:58;;;;;;;;;;;;;;;7.74;100.00;100073.47;1717399;84;20445;-75
2022/05/05 01:38:30;;;;;;;;;;;;;;;7.73;100.00;100071.77;1690139;85;20106;-75
2022/05/05 01:40:55;;;;;;;;;;;;;;;7.70;100.00;100081.00;1720154;83;20117;-76
2022/05/05 01:43:22;;;;;;;;;;;;;;;7.68;100.00;100084.83;1685629;85;20159;-74
2022/05/05 01:45:48;;;;;;;;;;;;;;;7.66;100.00;100086.83;1685674;85;20131;-75
2022/05/05 01:48:15;;;;;;;;;;;;;;;7.64;100.00;100091.52;1713942;84;20459;-74
2022/05/05 01:50:44;;;;;;;;;;;;;;;7.62;100.00;100094.86;1718745;84;20616;-75
2022/05/05 01:53:11;;;;;;;;;;;;;;;7.60;100.00;100092.31;1719034;84;20404;-74
2022/05/05 01:55:38;;;;;;;;;;;;;;;7.56;100.00;100101.67;1718929;84;20103;-76
2022/05/05 01:58:05;;;;;;;;;;;;;;;7.53;100.00;100093.92;1718765;84;20095;-76
2022/05/05 02:00:32;;;;;;;;;;;;;;;7.51;100.00;100106.17;1719073;84;20100;-77
2022/05/05 02:02:59;;;;;;;;;;;;;;;7.48;100.00;100101.08;1718838;84;20136;-76
2022/05/05 02:05:26;;;;;;;;;;;;;;;7.45;100.00;100102.72;1719069;84;20115;-74
2022/05/05 02:07:53;;;;;;;;;;;;;;;7.42;100.00;100109.77;1719402;84;20115;-76
2022/05/05 02:10:20;;;;;;;;;;;;;;;7.39;100.00;100101.48;1719047;84;20407;-74
2022/05/05 02:12:48;;;;;;;;;;;;;;;7.37;100.00;100112.05;1719164;84;20107;-75
2022/05/05 02:15:15;;;;;;;;;;;;;;;7.36;100.00;100110.34;1719296;84;20140;-75
2022/05/05 02:17:43;;;;;;;;;;;;;;;7.32;100.00;100116.52;1719543;84;20103;-75
2022/05/05 02:20:13;;;;;;;;;;;;;;;7.30;100.00;100121.71;1719453;84;20131;-75
2022/05/05 02:22:41;;;;;;;;;;;;;;;7.27;100.00;100122.00;1718226;84;20447;-73
2022/05/05 02:25:08;;;;;;;;;;;;;;;7.25;100.00;100117.27;1718997;82;20136;-75
2022/05/05 02:27:51;;;;;;;;;;;;;;;7.23;100.00;100122.80;1718808;84;20107;-75
2022/05/05 02:30:19;;;;;;;;;;;;;;;7.21;100.00;100132.86;1636338;87;20137;-75
2022/05/05 02:32:45;;;;;;;;;;;;;;;7.18;100.00;100132.63;1636438;86;20473;-75
2022/05/05 02:35:12;;;;;;;;;;;;;;;7.16;100.00;100133.28;1647755;87;20118;-76
2022/05/05 02:40:24;;;;;;;;;;;;;;;7.12;100.00;100135.92;1711878;84;20129;-75
2022/05/05 02:42:51;;;;;;;;;;;;;;;7.13;100.00;100144.33;1711723;84;20217;-75
2022/05/05 02:45:18;;;;;;;;;;;;;;;7.12;100.00;100143.99;1711826;84;20406;-76
2022/05/05 02:47:47;;;;;;;;;;;;;;;7.10;100.00;100147.33;1678032;84;20120;-75
2022/05/05 02:50:14;;;;;;;;;;;;;;;7.08;100.00;100145.26;1637657;88;20417;-74
2022/05/05 02:52:42;;;;;;;;;;;;;;;7.06;100.00;100153.13;1659047;86;20137;-74
2022/05/05 02:55:08;;;;;;;;;;;;;;;7.03;100.00;100152.44;1658975;86;20104;-75
2022/05/05 02:57:36;;;;;;;;;;;;;;;7.02;100.00;100152.07;1659232;86;20425;-75
2022/05/05 03:00:04;;;;;;;;;;;;;;;7.01;100.00;100150.39;1659275;86;20105;-74
2022/05/05 03:02:32;;;;;;;;;;;;;;;7.00;100.00;100161.29;1659662;85;20116;-74
2022/05/05 03:04:59;;;;;;;;;;;;;;;7.00;100.00;100163.47;1659686;85;20429;-75
2022/05/05 03:07:26;;;;;;;;;;;;;;;7.02;100.00;100165.52;1659518;86;20413;-75
2022/05/05 03:09:53;;;;;;;;;;;;;;;7.02;100.00;100166.86;1659734;86;20137;-75
2022/05/05 03:12:20;;;;;;;;;;;;;;;7.02;100.00;100173.58;1658832;85;20120;-76
2022/05/05 03:14:47;;;;;;;;;;;;;;;7.02;100.00;100178.12;1659675;86;20111;-74
2022/05/05 03:17:14;;;;;;;;;;;;;;;7.02;100.00;100184.33;1659753;86;20139;-75
2022/05/05 03:19:42;;;;;;;;;;;;;;;7.03;100.00;100179.83;1659318;86;20104;-76
2022/05/05 03:22:09;;;;;;;;;;;;;;;7.02;100.00;100176.27;1659554;85;20143;-74
2022/05/05 03:24:36;;;;;;;;;;;;;;;7.03;100.00;100182.52;1659592;85;20117;-74
2022/05/05 03:27:04;;;;;;;;;;;;;;;7.04;100.00;100186.88;1709162;82;20101;-75
2022/05/05 03:29:32;;;;;;;;;;;;;;;7.06;100.00;100191.61;1755107;82;20403;-76
2022/05/05 03:31:59;;;;;;;;;;;;;;;7.06;100.00;100186.74;1771465;81;20381;-74
2022/05/05 03:34:26;;;;;;;;;;;;;;;7.04;100.00;100186.88;1749003;81;20157;-75
2022/05/05 03:36:53;;;;;;;;;;;;;;;7.05;100.00;100195.31;1735080;83;20417;-75
2022/05/05 03:39:19;;;;;;;;;;;;;;;7.07;100.00;100196.52;1735506;83;20168;-75
2022/05/05 03:41:47;;;;;;;;;;;;;;;7.08;100.00;100192.31;1735610;83;20429;-75
2022/05/05 03:44:13;;;;;;;;;;;;;;;7.11;100.00;100196.06;1735464;83;20432;-75
2022/05/05 03:46:40;;;;;;;;;;;;;;;7.13;100.00;100200.80;1738420;82;20395;-75
2022/05/05 03:49:08;;;;;;;;;;;;;;;7.16;100.00;100206.40;1749496;82;20132;-75
2022/05/05 03:51:35;;;;;;;;;;;;;;;7.19;100.00;100206.95;1749329;82;20530;-73
2022/05/05 03:54:01;;;;;;;;;;;;;;;7.22;100.00;100205.80;1749763;82;20095;-76
2022/05/05 03:56:28;;;;;;;;;;;;;;;7.25;100.00;100208.20;1749726;82;20091;-73
2022/05/05 03:58:55;;;;;;;;;;;;;;;7.29;100.00;100212.80;1749621;82;20099;-74
2022/05/05 04:01:22;;;;;;;;;;;;;;;7.33;100.00;100214.20;1749659;82;20107;-75
2022/05/05 04:03:50;;;;;;;;;;;;;;;7.35;100.00;100219.80;1749324;82;20107;-75
2022/05/05 04:06:19;;;;;;;;;;;;;;;7.39;100.00;100221.70;1750312;82;20144;-75
2022/05/05 04:08:45;;;;;;;;;;;;;;;7.43;100.00;100222.25;1759623;82;20140;-76
2022/05/05 04:11:12;;;;;;;;;;;;;;;7.49;100.00;100228.38;1742194;82;20439;-75
2022/05/05 04:13:39;;;;;;;;;;;;;;;7.55;100.00;100225.12;1757981;82;20100;-77
2022/05/05 04:16:06;;;;;;;;;;;;;;;7.62;100.00;100230.77;1741513;82;20091;-76
2022/05/05 04:18:33;;;;;;;;;;;;;;;7.67;100.00;100229.83;1757939;80;20104;-74
2022/05/05 04:21:00;;;;;;;;;;;;;;;7.72;100.00;100231.55;1741636;82;20100;-74
2022/05/05 04:23:27;;;;;;;;;;;;;;;7.79;100.00;100229.96;1752080;81;20108;-75
2022/05/05 04:25:54;;;;;;;;;;;;;;;7.87;100.00;100238.16;1741652;82;20126;-74
2022/05/05 04:28:21;;;;;;;;;;;;;;;7.92;100.00;100235.87;1757631;82;20392;-71
2022/05/05 04:30:47;;;;;;;;;;;;;;;7.97;100.00;100238.96;1741404;82;20111;-70
2022/05/05 04:33:14;;;;;;;;;;;;;;;8.02;100.00;100244.39;1761093;80;21029;-70
2022/05/05 04:35:42;;;;;;;;;;;;;;;8.10;100.00;100230.52;1713040;82;20138;-70
2022/05/05 04:38:09;;;;;;;;;;;;;;;8.21;100.00;100238.06;1748943;82;20446;-71
2022/05/05 04:40:35;;;;;;;;;;;;;;;8.32;100.00;100237.83;1749105;82;20115;-71
2022/05/05 04:43:02;;;;;;;;;;;;;;;8.42;100.00;100248.56;1749176;82;20418;-70
2022/05/05 04:45:30;;;;;;;;;;;;;;;8.49;100.00;100249.17;1749009;82;20139;-70
2022/05/05 04:47:56;;;;;;;;;;;;;;;8.54;100.00;100254.12;1768139;81;20097;-74
2022/05/05 04:50:23;;;;;;;;;;;;;;;8.60;100.00;100260.73;1775853;81;20121;-70
2022/05/05 04:52:51;;;;;;;;;;;;;;;8.71;100.00;100262.72;1776053;81;20101;-70
2022/05/05 04:55:18;;;;;;;;;;;;;;;8.83;100.00;100269.22;1776275;81;20105;-70
2022/05/05 04:57:45;;;;;;;;;;;;;;;8.91;100.00;100266.61;1776016;81;20105;-69
2022/05/05 05:00:13;;;;;;;;;;;;;;;9.01;100.00;100273.25;1776037;81;20378;-70
2022/05/05 05:02:40;;;;;;;;;;;;;;;9.15;100.00;100270.51;1776412;81;20129;-69
2022/05/05 05:05:08;;;;;;;;;;;;;;;9.21;100.00;100276.64;1775904;81;20101;-71
2022/05/05 05:07:35;;;;;;;;;;;;;;;9.25;100.00;100288.81;1776405;81;20145;-70
2022/05/05 05:10:02;;;;;;;;;;;;;;;9.33;100.00;100288.88;1775752;81;20104;-70
2022/05/05 05:12:29;;;;;;;;;;;;;;;9.44;100.00;100285.08;1723989;82;20131;-70
2022/05/05 05:14:56;;;;;;;;;;;;;;;9.59;100.00;100290.73;1739586;82;20163;-70
2022/05/05 05:17:23;;;;;;;;;;;;;;;9.79;100.00;100281.42;1740246;82;20120;-71
2022/05/05 05:19:50;;;;;;;;;;;;;;;9.97;100.00;100296.69;1739939;82;20463;-70
2022/05/05 05:22:17;;;;;;;;;;;;;;;10.14;100.00;100291.71;1740205;82;20447;-70
2022/05/05 05:24:44;;;;;;;;;;;;;;;10.40;100.00;100302.50;1740117;81;20193;-69
2022/05/05 05:27:11;;;;;;;;;;;;;;;10.67;100.00;100302.41;1739838;82;20132;-69
2022/05/05 05:29:38;;;;;;;;;;;;;;;10.83;100.00;100304.63;1740549;82;20108;-70
2022/05/05 05:32:06;;;;;;;;;;;;;;;10.91;100.00;100319.21;1740089;82;20187;-71
2022/05/05 05:34:33;;;;;;;;;;;;;;;10.98;100.00;100323.78;1725247;83;20142;-71
2022/05/05 05:37:00;;;;;;;;;;;;;;;11.09;100.00;100325.31;1718896;83;20162;-71
2022/05/05 05:39:26;;;;;;;;;;;;;;;11.17;100.00;100326.69;1719680;83;20141;-70
2022/05/05 05:41:53;;;;;;;;;;;;;;;11.19;100.00;100338.18;1718767;84;20173;-70
2022/05/05 05:44:20;;;;;;;;;;;;;;;11.14;100.00;100344.60;1719314;83;20137;-71
2022/05/05 05:46:47;;;;;;;;;;;;;;;11.23;100.00;100333.80;1724170;82;20107;-70
2022/05/05 05:49:14;;;;;;;;;;;;;;;11.44;100.00;100340.91;1756601;81;20119;-71
2022/05/05 05:51:41;;;;;;;;;;;;;;;11.68;100.00;100340.02;1722202;83;20405;-70
2022/05/05 05:54:08;;;;;;;;;;;;;;;11.85;100.00;100344.92;1748439;82;20185;-70
2022/05/05 05:56:35;;;;;;;;;;;;;;;11.99;100.00;100340.70;1745413;81;20186;-70
2022/05/05 05:59:02;;;;;;;;;;;;;;;12.19;100.00;100344.38;1747676;82;20133;-70
2022/05/05 06:04:14;;;;;;;;;;;;;;;12.57;100.00;100347.27;1746446;82;20154;-74
2022/05/05 06:06:41;;;;;;;;;;;;;;;12.51;100.00;100360.51;1745818;82;20208;-71
2022/05/05 06:09:08;;;;;;;;;;;;;;;12.59;100.00;100358.29;1746920;82;20142;-70
2022/05/05 06:11:36;;;;;;;;;;;;;;;12.77;100.00;100364.81;1745913;82;20119;-73
2022/05/05 06:14:04;;;;;;;;;;;;;;;12.87;100.00;100371.36;1748692;82;20127;-70
2022/05/05 06:16:31;;;;;;;;;;;;;;;12.75;100.00;100375.49;1749742;82;20130;-70
2022/05/05 06:18:58;;;;;;;;;;;;;;;12.65;100.00;100371.13;1749883;82;20418;-71
2022/05/05 06:21:25;;;;;;;;;;;;;;;12.79;100.00;100378.20;1711986;84;20423;-71
2022/05/05 06:23:52;;;;;;;;;;;;;;;12.97;100.00;100383.36;1710587;84;20129;-71
2022/05/05 06:26:19;;;;;;;;;;;;;;;12.90;100.00;100387.30;1721962;83;20203;-70
2022/05/05 06:28:46;;;;;;;;;;;;;;;12.95;100.00;100389.48;1722382;83;20105;-71
2022/05/05 06:31:13;;;;;;;;;;;;;;;13.13;100.00;100399.55;1722018;83;20117;-72
2022/05/05 06:33:40;;;;;;;;;;;;;;;13.35;100.00;100395.21;1719677;83;20228;-71
2022/05/05 06:36:07;;;;;;;;;;;;;;;13.35;100.00;100405.20;1708745;84;20417;-71
2022/05/05 06:38:35;;;;;;;;;;;;;;;13.33;100.00;100405.91;1713934;84;20158;-69
2022/05/05 06:41:02;;;;;;;;;;;;;;;13.35;100.00;100403.84;1723499;83;20198;-71
2022/05/05 06:43:29;;;;;;;;;;;;;;;13.51;100.00;100405.11;1705420;84;20134;-71
2022/05/05 06:45:57;;;;;;;;;;;;;;;13.60;100.00;100414.05;1716218;84;20110;-71
2022/05/05 06:48:24;;;;;;;;;;;;;;;13.60;100.00;100414.05;1734042;83;20131;-69
2022/05/05 06:50:51;;;;;;;;;;;;;;;13.79;100.00;100411.32;1735281;81;20100;-68
2022/05/05 06:53:18;;;;;;;;;;;;;;;14.07;100.00;100415.66;1774676;80;20105;-70
2022/05/05 06:55:45;;;;;;;;;;;;;;;14.30;100.00;100420.20;1775186;81;20128;-70
2022/05/05 06:58:12;;;;;;;;;;;;;;;14.54;100.00;100427.25;1775006;81;20156;-71
2022/05/05 07:03:24;;;;;;;;;;;;;;;14.84;100.00;100424.03;1775548;81;20148;-70
2022/05/05 07:05:51;;;;;;;;;;;;;;;15.06;100.00;100432.25;1774994;81;20113;-71
2022/05/05 07:08:18;;;;;;;;;;;;;;;15.19;100.00;100433.75;1775210;81;20109;-72
2022/05/05 07:10:55;;;;;;;;;;;;;;;15.43;100.00;100439.38;1774497;81;20478;-70
2022/05/05 07:13:23;;;;;;;;;;;;;;;15.63;100.00;100452.38;1774909;81;20144;-71
2022/05/05 07:15:49;;;;;;;;;;;;;;;15.67;94.56;100446.84;1774916;81;20468;-71
2022/05/05 07:18:17;;;;;;;;;;;;;;;15.66;95.79;100454.19;1775577;81;20155;-71
2022/05/05 07:20:44;;;;;;;;;;;;;;;15.77;95.08;100458.30;1774813;81;20629;-70
2022/05/05 07:23:14;;;;;;;;;;;;;;;15.90;93.47;100461.17;1775496;81;20108;-71
2022/05/05 07:25:43;;;;;;;;;;;;;;;15.99;90.17;100447.37;1774673;80;20164;-72
2022/05/05 07:28:13;;;;;;;;;;;;;;;16.05;89.09;100449.34;1774988;81;20141;-72
2022/05/05 07:30:39;;;;;;;;;;;;;;;16.06;87.33;100445.05;1775974;80;20109;-72
2022/05/05 07:33:07;;;;;;;;;;;;;;;15.97;85.62;100454.92;1775875;80;20129;-71
2022/05/05 07:35:36;;;;;;;;;;;;;;;15.98;86.41;100451.16;1777842;80;20139;-71
2022/05/05 07:38:03;;;;;;;;;;;;;;;16.13;85.97;100453.30;1778918;81;20108;-71
2022/05/05 07:40:30;;;;;;;;;;;;;;;16.35;83.17;100451.35;1779544;81;20116;-71
2022/05/05 07:42:56;;;;;;;;;;;;;;;16.38;76.39;100446.00;1779273;81;20385;-71
2022/05/05 07:45:27;;;;;;;;;;;;;;;16.33;77.01;100469.81;1779179;81;20417;-71
2022/05/05 07:47:57;;;;;;;;;;;;;;;16.47;76.27;100453.85;1778889;81;20151;-70
2022/05/05 07:50:22;;;;;;;;;;;;;;;16.62;71.72;100456.45;1779883;81;20189;-71
2022/05/05 07:52:50;;;;;;;;;;;;;;;16.64;73.32;100463.95;1763267;81;20118;-72
2022/05/05 07:55:17;;;;;;;;;;;;;;;16.86;73.63;100459.26;1778931;81;20408;-70
2022/05/05 07:57:45;;;;;;;;;;;;;;;17.16;72.44;100448.05;1763222;81;20106;-72
2022/05/05 08:00:14;;;;;;;;;;;;;;;17.36;66.07;100460.94;1778641;80;20397;-72
2022/05/05 08:02:41;;;;;;;;;;;;;;;17.21;62.78;100466.05;1762539;81;20172;-71
2022/05/05 08:05:11;;;;;;;;;;;;;;;17.18;63.88;100456.05;1778626;80;20105;-70
2022/05/05 08:07:43;;;;;;;;;;;;;;;17.28;66.06;100457.84;1762767;81;20106;-72
2022/05/05 08:10:11;;;;;;;;;;;;;;;17.58;66.36;100466.58;1762773;81;20415;-72
2022/05/05 08:12:39;;;;;;;;;;;;;;;17.77;60.73;100469.55;1762581;81;20423;-72
2022/05/05 08:15:08;;;;;;;;;;;;;;;17.80;56.45;100473.24;1778786;80;20112;-72
2022/05/05 08:17:36;;;;;;;;;;;;;;;17.51;57.42;100471.70;1762759;81;20126;-71
2022/05/05 08:20:04;;;;;;;;;;;;;;;17.45;57.48;100466.00;1762307;81;20110;-71
2022/05/05 08:22:32;;;;;;;;;;;;;;;17.57;58.53;100473.09;1778843;80;20136;-70
2022/05/05 08:30:30;;;;;;;;;;;;;;;17.73;55.63;100471.02;1762685;81;20422;-72
2022/05/05 08:32:57;;;;;;;;;;;;;;;17.65;53.77;100474.27;1778616;80;20128;-74
2022/05/05 08:35:27;;;;;;;;;;;;;;;17.44;55.50;100472.53;1728806;81;20169;-71
2022/05/05 08:37:53;;;;;;;;;;;;;;;17.27;54.51;100472.58;1694609;84;20156;-71
2022/05/05 08:40:23;;;;;;;;;;;;;;;17.02;53.44;100479.09;1716942;84;20177;-71
2022/05/05 08:42:50;;;;;;;;;;;;;;;16.73;52.74;100487.81;1693857;84;20160;-73
2022/05/05 08:45:17;;;;;;;;;;;;;;;16.60;54.48;100484.48;1717566;84;20450;-70
2022/05/05 08:47:46;;;;;;;;;;;;;;;16.72;55.17;100482.05;1732347;82;20115;-72
2022/05/05 08:50:13;;;;;;;;;;;;;;;16.91;54.63;100478.28;1765273;81;20090;-72
2022/05/05 08:52:47;;;;;;;;;;;;;;;16.86;53.94;100471.55;1740021;82;20104;-71
2022/05/05 08:55:15;;;;;;;;;;;;;;;17.03;55.42;100475.30;1739195;82;20099;-73
2022/05/05 08:57:42;;;;;;;;;;;;;;;17.36;56.25;100478.17;1740515;82;20127;-70
2022/05/05 09:00:11;;;;;;;;;;;;;;;17.68;52.61;100478.47;1765552;81;20137;-72
2022/05/05 09:02:38;;;;;;;;;;;;;;;17.88;53.58;100479.06;1741141;82;20104;-72
2022/05/05 09:05:06;;;;;;;;;;;;;;;18.25;53.14;100476.23;1740392;82;20170;-72
2022/05/05 09:07:50;;;;;;;;;;;;;;;18.65;53.43;100455.66;1741106;82;20111;-71
2022/05/05 09:10:17;;;;;;;;;;;;;;;19.00;50.49;100471.83;1765395;81;20137;-72
2022/05/05 09:15:32;;;;;;;;;;;;;;;19.48;50.86;100478.80;1693342;85;20135;-71
2022/05/05 09:18:13;;;;;;;;;;;;;;;19.38;46.32;100460.59;1665295;85;20175;-74
2022/05/05 09:20:40;;;;;;;;;;;;;;;18.96;46.03;100471.93;1692255;85;20131;-72
2022/05/05 09:23:07;;;;;;;;;;;;;;;18.76;47.21;100465.11;1670297;85;20147;-73
2022/05/05 09:25:47;;;;;;;;;;;;;;;18.95;47.44;100473.00;1693370;85;20135;-73
2022/05/05 09:28:21;;;;;;;;;;;;;;;19.11;48.16;100471.14;1615460;89;20180;-71
2022/05/05 09:30:50;;;;;;;;;;;;;;;19.06;44.56;100464.64;1560045;90;20685;-75
2022/05/05 09:33:17;;;;;;;;;;;;;;;18.75;44.68;100467.02;1561441;92;20518;-71
2022/05/05 09:35:45;;;;;;;;;;;;;;;18.62;45.00;100477.99;1579066;90;20171;-73
2022/05/05 09:38:12;;;;;;;;;;;;;;;18.32;45.56;100481.72;1567786;92;20146;-73
2022/05/05 09:40:39;;;;;;;;;;;;;;;18.32;47.76;100498.97;1570302;91;20154;-73
2022/05/05 09:43:08;;;;;;;;;;;;;;;18.68;47.40;100488.11;1568383;92;20137;-74
2022/05/05 09:45:36;;;;;;;;;;;;;;;19.04;45.17;100488.69;1589261;90;20188;-73
2022/05/05 09:48:04;;;;;;;;;;;;;;;18.92;42.98;100485.76;1563542;91;20190;-71
2022/05/05 09:50:32;;;;;;;;;;;;;;;18.74;42.84;100487.78;1561587;92;20150;-73
2022/05/05 09:58:38;;;;;;;;;;;;;;;17.98;42.17;100495.91;1503311;96;20187;-71
2022/05/05 10:01:08;;;;;;;;;;;;;;;17.69;43.50;100499.31;1502878;96;20131;-72
2022/05/05 10:06:37;;;;;;;;;;;;;;;17.73;43.44;100499.20;1502590;95;20119;-73
2022/05/05 10:09:06;;;;;;;;;;;;;;;17.63;43.69;100513.26;1502841;96;20598;-71
2022/05/05 10:11:32;;;;;;;;;;;;;;;17.75;44.25;100505.84;1503362;96;20135;-71
2022/05/05 10:14:00;;;;;;;;;;;;;;;18.02;45.17;100519.92;1502629;96;20189;-71
2022/05/05 10:16:27;;;;;;;;;;;;;;;18.07;42.20;100504.77;1503297;96;20174;-71
2022/05/05 10:18:56;;;;;;;;;;;;;;;17.82;41.99;100520.38;1513290;94;20502;-72
2022/05/05 10:21:29;;;;;;;;;;;;;;;17.60;42.62;100512.83;1523265;94;20170;-71
2022/05/05 10:24:09;;;;;;;;;;;;;;;17.52;43.27;100513.03;1523928;91;20426;-72
2022/05/05 10:26:39;;;;;;;;;;;;;;;17.57;43.82;100506.43;1551929;92;20188;-73
2022/05/05 10:29:27;;;;;;;;;;;;;;;17.89;44.22;100504.02;1544710;92;20136;-73
2022/05/05 10:31:54;;;;;;;;;;;;;;;18.29;44.20;100511.73;1532909;94;20185;-71
2022/05/05 10:34:21;;;;;;;;;;;;;;;18.68;42.85;100509.16;1559195;90;20112;-71
2022/05/05 10:37:00;;;;;;;;;;;;;;;18.73;41.26;100495.16;1588816;90;20121;-73
2022/05/05 10:39:43;;;;;;;;;;;;;;;18.66;41.60;100503.92;1588879;90;20112;-74
2022/05/05 10:42:33;;;;;;;;;;;;;;;18.58;41.00;100504.13;1590076;90;20201;-76
2022/05/05 10:45:26;;;;;;;;;;;;;;;18.52;42.65;100507.20;1571146;90;20619;-75
2022/05/05 10:48:06;;;;;;;;;;;;;;;18.60;41.23;100507.49;1570268;91;20153;-72
2022/05/05 10:50:49;;;;;;;;;;;;;;;18.50;40.46;100513.92;1574047;90;20125;-75
2022/05/05 10:53:30;;;;;;;;;;;;;;;18.20;39.87;100514.34;1573299;90;20148;-73
2022/05/05 10:55:59;;;;;;;;;;;;;;;17.83;40.44;100505.13;1640307;87;20426;-71
2022/05/05 10:58:58;;;;;;;;;;;;;;;17.94;42.38;100520.11;1604602;89;20184;-74
2022/05/05 11:01:29;;;;;;;;;;;;;;;18.07;39.48;100516.55;1605041;89;20134;-73
2022/05/05 11:04:18;;;;;;;;;;;;;;;18.05;40.52;100506.34;1605155;89;20496;-73
2022/05/05 11:06:45;;;;;;;;;;;;;;;18.23;40.55;100528.98;1605098;89;20206;-74
2022/05/05 11:09:37;;;;;;;;;;;;;;;18.21;39.71;100525.08;1604354;89;20955;-73
2022/05/05 11:12:17;;;;;;;;;;;;;;;18.18;40.46;100518.68;1603547;89;20146;-71
2022/05/05 11:23:12;;;;;;;;;;;;;;;18.47;38.99;100517.08;1603869;89;20526;-72
2022/05/05 11:25:41;;;;;;;;;;;;;;;18.75;39.40;100513.59;1604309;89;20102;-72
2022/05/05 11:28:11;;;;;;;;;;;;;;;19.00;38.57;100507.96;1556739;92;20427;-71
2022/05/05 11:30:41;;;;;;;;;;;;;;;19.04;37.00;100521.03;1578544;91;20113;-68
2022/05/05 11:33:08;;;;;;;;;;;;;;;18.96;38.56;100517.14;1584167;91;20120;-67
2022/05/05 11:35:36;;;;;;;;;;;;;;;19.24;37.46;100516.02;1578542;91;20109;-68
2022/05/05 11:38:11;;;;;;;;;;;;;;;19.28;36.38;100523.59;1576416;91;20144;-68
2022/05/05 11:40:38;;;;;;;;;;;;;;;19.07;36.66;100515.63;1595035;90;20151;-68
2022/05/05 11:45:54;;;;;;;;;;;;;;;18.59;36.28;100526.33;1597053;90;20111;-70
2022/05/05 11:48:21;;;;;;;;;;;;;;;18.45;36.53;100527.40;1597088;90;20143;-70
2022/05/05 11:50:50;;;;;;;;;;;;;;;18.32;36.33;100518.67;1597180;90;20154;-69
2022/05/05 11:53:17;;;;;;;;;;;;;;;18.40;36.72;100523.41;1606957;89;20098;-68
2022/05/05 11:55:45;;;;;;;;;;;;;;;18.50;36.34;100527.11;1646578;86;20266;-69
2022/05/05 12:01:36;;;;;;;;;;;;;;;18.56;37.11;100526.25;1673535;86;20175;-68
2022/05/05 12:03:29;;;;;;;;;;;;;;;18.63;36.83;100528.13;1672283;86;20163;-72
2022/05/05 12:05:57;;;;;;;;;;;;;;;18.66;36.49;100523.59;1672266;86;20167;-73
2022/05/05 12:08:24;;;;;;;;;;;;;;;18.65;34.86;100521.93;1672444;86;20139;-73
2022/05/05 12:10:53;;;;;;;;;;;;;;;18.59;34.95;100516.25;1672509;86;20175;-74
2022/05/05 12:13:24;;;;;;;;;;;;;;;18.64;34.08;100516.95;1628430;86;20159;-73
2022/05/05 12:15:51;;;;;;;;;;;;;;;18.66;34.69;100520.86;1672354;86;20134;-74
2022/05/05 12:18:18;;;;;;;;;;;;;;;18.65;34.03;100520.02;1650918;86;20147;-71
2022/05/05 12:20:45;;;;;;;;;;;;;;;18.56;33.58;100517.20;1674052;86;20423;-71
2022/05/05 12:23:13;;;;;;;;;;;;;;;18.54;33.79;100518.77;1673996;86;20139;-73
2022/05/05 12:25:43;;;;;;;;;;;;;;;18.55;34.49;100521.81;1736161;82;20111;-72
2022/05/05 12:28:10;;;;;;;;;;;;;;;18.79;35.18;100516.20;1751189;82;20146;-73
2022/05/05 12:30:39;;;;;;;;;;;;;;;19.15;34.91;100510.76;1751214;82;20122;-72
2022/05/05 12:33:10;;;;;;;;;;;;;;;19.43;34.31;100514.25;1751007;82;20383;-73
2022/05/05 12:35:41;;;;;;;;;;;;;;;19.37;33.12;100511.00;1726411;82;20158;-72
2022/05/05 12:38:09;;;;;;;;;;;;;;;19.16;33.97;100515.20;1703084;84;20099;-72
2022/05/05 12:40:37;;;;;;;;;;;;;;;19.27;34.18;100514.22;1716360;84;20111;-71
2022/05/05 12:43:08;;;;;;;;;;;;;;;19.42;32.92;100515.30;1716351;84;20165;-73
2022/05/05 12:45:36;;;;;;;;;;;;;;;19.42;32.05;100511.19;1715803;84;20138;-73
2022/05/05 12:48:06;;;;;;;;;;;;;;;19.58;33.13;100512.05;1725507;83;20100;-72
2022/05/05 12:50:47;;;;;;;;;;;;;;;19.83;32.32;100512.69;1685471;85;20487;-72
2022/05/05 13:01:42;;;;;;;;;;;;;;;19.19;29.39;100526.24;1609230;89;20108;-72
2022/05/05 13:04:12;;;;;;;;;;;;;;;18.93;29.89;100518.97;1608048;89;20190;-73
2022/05/05 13:06:39;;;;;;;;;;;;;;;18.84;30.24;100517.48;1608600;89;20116;-74
2022/05/05 13:09:08;;;;;;;;;;;;;;;18.88;30.46;100519.59;1608378;89;20181;-73
2022/05/05 13:11:38;;;;;;;;;;;;;;;18.98;29.97;100523.25;1608564;89;20179;-74
2022/05/05 13:14:05;;;;;;;;;;;;;;;18.97;28.70;100525.16;1608215;89;20176;-73
2022/05/05 13:16:33;;;;;;;;;;;;;;;18.94;28.62;100525.57;1608113;89;20196;-74
2022/05/05 13:21:41;;;;;;;;;;;;;;;18.55;27.59;100536.88;1601790;90;20138;-72
2022/05/05 13:24:09;;;;;;;;;;;;;;;18.38;28.67;100527.42;1601658;90;20140;-73
2022/05/05 13:26:44;;;;;;;;;;;;;;;18.60;28.45;100540.36;1602075;88;20410;-73
2022/05/05 13:29:11;;;;;;;;;;;;;;;18.67;27.47;100541.73;1601368;90;20122;-73
2022/05/05 13:31:40;;;;;;;;;;;;;;;18.63;28.59;100539.08;1601549;90;20109;-72
2022/05/05 13:34:07;;;;;;;;;;;;;;;18.78;28.34;100535.05;1598799;88;20420;-73
2022/05/05 13:36:35;;;;;;;;;;;;;;;18.81;29.37;100537.08;1581751;90;20122;-70
2022/05/05 13:39:03;;;;;;;;;;;;;;;19.04;29.62;100544.86;1571423;90;20118;-70